TimeCST,TemperatureF,Dew PointF,Humidity,Sea Level PressureIn,VisibilityMPH,Wind Direction,Wind SpeedMPH,Gust SpeedMPH,PrecipitationIn,Events,Conditions,WindDirDegrees,DateUTC
12:53 AM,42.1,34.0,73,30.25,8.0,South,9.2,-,N/A,,Clear,170,2012-11-19 06:53:00
1:53 AM,44.1,34.0,68,30.23,8.0,SSE,13.8,-,N/A,,Clear,160,2012-11-19 07:53:00
2:53 AM,42.1,34.0,73,30.23,8.0,South,9.2,-,N/A,,Clear,170,2012-11-19 08:53:00
3:53 AM,42.1,34.0,73,30.21,8.0,SSE,10.4,-,N/A,,Partly Cloudy,160,2012-11-19 09:53:00
4:53 AM,41.0,34.0,76,30.21,8.0,South,6.9,-,N/A,,Clear,170,2012-11-19 10:53:00
5:53 AM,41.0,34.0,76,30.21,7.0,SSE,9.2,-,N/A,,Clear,160,2012-11-19 11:53:00
6:53 AM,42.1,34.0,73,30.21,8.0,SSE,10.4,-,N/A,,Mostly Cloudy,160,2012-11-19 12:53:00
7:53 AM,42.1,35.1,76,30.20,6.0,South,8.1,-,N/A,,Haze,170,2012-11-19 13:53:00
8:53 AM,44.1,35.1,71,30.20,8.0,South,11.5,-,N/A,,Overcast,170,2012-11-19 14:53:00
9:53 AM,46.9,36.0,66,30.20,8.0,South,9.2,-,N/A,,Overcast,180,2012-11-19 15:53:00
10:53 AM,48.9,37.0,64,30.19,10.0,South,10.4,-,N/A,,Overcast,180,2012-11-19 16:53:00
11:53 AM,50.0,37.9,63,30.15,10.0,South,11.5,-,N/A,,Mostly Cloudy,180,2012-11-19 17:53:00
12:53 PM,52.0,39.9,63,30.12,10.0,South,15.0,-,N/A,,Overcast,170,2012-11-19 18:53:00
1:53 PM,51.1,39.9,66,30.10,10.0,SSE,12.7,-,N/A,,Overcast,160,2012-11-19 19:53:00
2:18 PM,51.8,42.8,71,30.08,10.0,South,15.0,-,N/A,,Overcast,180,2012-11-19 20:18:00
2:53 PM,52.0,44.1,74,30.10,10.0,SSW,15.0,-,N/A,,Overcast,200,2012-11-19 20:53:00
3:53 PM,50.0,44.1,80,30.10,9.0,South,12.7,-,N/A,,Overcast,180,2012-11-19 21:53:00
4:44 PM,50.0,44.6,82,30.08,9.0,SSW,9.2,-,N/A,,Overcast,200,2012-11-19 22:44:00
4:53 PM,48.9,44.1,83,30.10,9.0,SSW,8.1,-,N/A,,Overcast,200,2012-11-19 22:53:00
5:53 PM,48.0,45.0,89,30.12,7.0,South,9.2,-,N/A,,Overcast,190,2012-11-19 23:53:00
6:21 PM,48.2,44.6,87,30.10,6.0,South,8.1,-,N/A,,Overcast,190,2012-11-20 00:21:00
6:53 PM,48.0,45.0,89,30.11,5.0,SSW,6.9,-,N/A,,Overcast,200,2012-11-20 00:53:00
7:11 PM,48.2,44.6,87,30.09,5.0,South,6.9,-,N/A,,Overcast,190,2012-11-20 01:11:00
7:53 PM,48.0,45.0,89,30.11,5.0,South,6.9,-,N/A,,Overcast,190,2012-11-20 01:53:00
8:51 PM,46.4,44.6,93,30.08,5.0,SSW,8.1,-,N/A,,Overcast,200,2012-11-20 02:51:00
8:53 PM,46.9,44.1,90,30.11,5.0,SSW,8.1,-,N/A,,Overcast,200,2012-11-20 02:53:00
9:53 PM,46.9,44.1,90,30.10,6.0,SSW,5.8,-,N/A,,Overcast,200,2012-11-20 03:53:00
10:53 PM,46.9,44.1,90,30.09,6.0,SSW,5.8,-,N/A,,Overcast,200,2012-11-20 04:53:00
11:53 PM,46.0,44.1,93,30.09,5.0,South,3.5,-,N/A,,Overcast,170,2012-11-20 05:53:00